sensor_id;sensor_type;location;lat;lon;timestamp;temperature;humidity
16283;DHT22;8249;48.708;9.030;2024-02-23T00:01:45;5.40;99.90
16283;DHT22;8249;48.708;9.030;2024-02-23T00:04:12;5.30;99.90
16283;DHT22;8249;48.708;9.030;2024-02-23T00:06:39;5.30;99.90
16283;DHT22;8249;48.708;9.030;2024-02-23T00:09:06;5.30;99.90
16283;DHT22;8249;48.708;9.030;2024-02-23T00:11:34;5.30;99.90
16283;DHT22;8249;48.708;9.030;2024-02-23T00:14:05;5.30;99.90
16283;DHT22;8249;48.708;9.030;2024-02-23T00:16:37;5.40;99.90
16283;DHT22;8249;48.708;9.030;2024-02-23T00:19:04;5.40;99.90
16283;DHT22;8249;48.708;9.030;2024-02-23T00:21:31;5.40;99.90
16283;DHT22;8249;48.708;9.030;2024-02-23T00:23:58;5.30;99.90
16283;DHT22;8249;48.708;9.030;2024-02-23T00:26:25;5.40;99.90
16283;DHT22;8249;48.708;9.030;2024-02-23T00:28:55;5.40;99.90
16283;DHT22;8249;48.708;9.030;2024-02-23T00:31:22;5.40;99.90
16283;DHT22;8249;48.708;9.030;2024-02-23T00:33:49;5.40;99.90
16283;DHT22;8249;48.708;9.030;2024-02-23T00:36:16;5.50;99.90
16283;DHT22;8249;48.708;9.030;2024-02-23T00:38:43;5.50;99.90
16283;DHT22;8249;48.708;9.030;2024-02-23T00:41:09;5.50;99.90
16283;DHT22;8249;48.708;9.030;2024-02-23T00:43:40;5.50;99.90
16283;DHT22;8249;48.708;9.030;2024-02-23T00:46:08;5.50;99.90
16283;DHT22;8249;48.708;9.030;2024-02-23T00:48:35;5.50;99.90
16283;DHT22;8249;48.708;9.030;2024-02-23T00:51:03;5.50;99.90
16283;DHT22;8249;48.708;9.030;2024-02-23T00:53:30;5.50;99.90
16283;DHT22;8249;48.708;9.030;2024-02-23T00:55:57;5.50;99.90
16283;DHT22;8249;48.708;9.030;2024-02-23T00:58:24;5.50;99.90
16283;DHT22;8249;48.708;9.030;2024-02-23T01:00:51;5.50;99.90
16283;DHT22;8249;48.708;9.030;2024-02-23T01:03:19;5.50;99.90
16283;DHT22;8249;48.708;9.030;2024-02-23T01:05:46;5.50;99.90
16283;DHT22;8249;48.708;9.030;2024-02-23T01:08:13;5.50;99.90
16283;DHT22;8249;48.708;9.030;2024-02-23T01:10:40;5.40;99.90
16283;DHT22;8249;48.708;9.030;2024-02-23T01:13:07;5.50;99.90
16283;DHT22;8249;48.708;9.030;2024-02-23T01:15:34;5.50;99.90
16283;DHT22;8249;48.708;9.030;2024-02-23T01:18:01;5.50;99.90
16283;DHT22;8249;48.708;9.030;2024-02-23T01:20:29;5.50;99.90
16283;DHT22;8249;48.708;9.030;2024-02-23T01:22:56;5.50;99.90
16283;DHT22;8249;48.708;9.030;2024-02-23T01:25:23;5.40;99.90
16283;DHT22;8249;48.708;9.030;2024-02-23T01:27:50;5.50;99.90
16283;DHT22;8249;48.708;9.030;2024-02-23T01:30:17;5.40;99.90
16283;DHT22;8249;48.708;9.030;2024-02-23T01:32:44;5.40;99.90
16283;DHT22;8249;48.708;9.030;2024-02-23T01:35:11;5.50;99.90
16283;DHT22;8249;48.708;9.030;2024-02-23T01:37:39;5.40;99.90
16283;DHT22;8249;48.708;9.030;2024-02-23T01:40:07;5.40;99.90
16283;DHT22;8249;48.708;9.030;2024-02-23T01:42:34;5.30;99.90
16283;DHT22;8249;48.708;9.030;2024-02-23T01:45:01;5.40;99.90
16283;DHT22;8249;48.708;9.030;2024-02-23T01:47:29;5.30;99.90
16283;DHT22;8249;48.708;9.030;2024-02-23T01:49:57;5.40;99.90
16283;DHT22;8249;48.708;9.030;2024-02-23T01:52:26;5.40;99.90
16283;DHT22;8249;48.708;9.030;2024-02-23T01:54:54;5.40;99.90
16283;DHT22;8249;48.708;9.030;2024-02-23T01:57:23;5.40;99.90
16283;DHT22;8249;48.708;9.030;2024-02-23T01:59:50;5.40;99.90
16283;DHT22;8249;48.708;9.030;2024-02-23T02:02:17;5.50;99.90
16283;DHT22;8249;48.708;9.030;2024-02-23T02:04:44;5.40;99.90
16283;DHT22;8249;48.708;9.030;2024-02-23T02:07:11;5.40;99.90
16283;DHT22;8249;48.708;9.030;2024-02-23T02:09:38;5.40;99.90
16283;DHT22;8249;48.708;9.030;2024-02-23T02:12:06;5.40;99.90
16283;DHT22;8249;48.708;9.030;2024-02-23T02:14:33;5.30;99.90
16283;DHT22;8249;48.708;9.030;2024-02-23T02:17:00;5.40;99.90
16283;DHT22;8249;48.708;9.030;2024-02-23T02:19:27;5.30;99.90
16283;DHT22;8249;48.708;9.030;2024-02-23T02:21:54;5.40;99.90
16283;DHT22;8249;48.708;9.030;2024-02-23T02:24:21;5.40;99.90
16283;DHT22;8249;48.708;9.030;2024-02-23T02:26:48;5.60;99.90
16283;DHT22;8249;48.708;9.030;2024-02-23T02:29:17;5.40;99.90
16283;DHT22;8249;48.708;9.030;2024-02-23T02:31:44;5.30;99.90
16283;DHT22;8249;48.708;9.030;2024-02-23T02:34:11;5.40;99.90
16283;DHT22;8249;48.708;9.030;2024-02-23T02:36:40;5.30;99.90
16283;DHT22;8249;48.708;9.030;2024-02-23T02:39:06;5.30;99.90
16283;DHT22;8249;48.708;9.030;2024-02-23T02:41:33;5.30;99.90
16283;DHT22;8249;48.708;9.030;2024-02-23T02:44:00;5.30;99.90
16283;DHT22;8249;48.708;9.030;2024-02-23T02:46:29;5.20;99.90
16283;DHT22;8249;48.708;9.030;2024-02-23T02:48:56;5.30;99.90
16283;DHT22;8249;48.708;9.030;2024-02-23T02:51:22;5.30;99.90
16283;DHT22;8249;48.708;9.030;2024-02-23T02:53:49;5.30;99.90
16283;DHT22;8249;48.708;9.030;2024-02-23T02:56:16;5.30;99.90
16283;DHT22;8249;48.708;9.030;2024-02-23T02:58:43;5.30;99.90
16283;DHT22;8249;48.708;9.030;2024-02-23T03:01:10;5.30;99.90
16283;DHT22;8249;48.708;9.030;2024-02-23T03:03:38;5.30;99.90
16283;DHT22;8249;48.708;9.030;2024-02-23T03:06:06;5.30;99.90
16283;DHT22;8249;48.708;9.030;2024-02-23T03:08:33;5.30;99.90
16283;DHT22;8249;48.708;9.030;2024-02-23T03:11:00;5.30;99.90
16283;DHT22;8249;48.708;9.030;2024-02-23T03:13:27;5.30;99.90
16283;DHT22;8249;48.708;9.030;2024-02-23T03:15:53;5.30;99.90
16283;DHT22;8249;48.708;9.030;2024-02-23T03:18:20;5.30;99.90
16283;DHT22;8249;48.708;9.030;2024-02-23T03:20:49;5.20;99.90
16283;DHT22;8249;48.708;9.030;2024-02-23T03:23:16;5.20;99.90
16283;DHT22;8249;48.708;9.030;2024-02-23T03:25:42;5.20;99.90
16283;DHT22;8249;48.708;9.030;2024-02-23T03:28:09;5.30;99.90
16283;DHT22;8249;48.708;9.030;2024-02-23T03:30:36;5.10;99.90
16283;DHT22;8249;48.708;9.030;2024-02-23T03:33:04;5.10;99.90
16283;DHT22;8249;48.708;9.030;2024-02-23T03:35:30;5.10;99.90
16283;DHT22;8249;48.708;9.030;2024-02-23T03:37:58;5.10;99.90
16283;DHT22;8249;48.708;9.030;2024-02-23T03:40:25;5.10;99.90
16283;DHT22;8249;48.708;9.030;2024-02-23T03:42:51;5.00;99.90
16283;DHT22;8249;48.708;9.030;2024-02-23T03:45:18;5.00;99.90
16283;DHT22;8249;48.708;9.030;2024-02-23T03:47:45;5.00;99.90
16283;DHT22;8249;48.708;9.030;2024-02-23T03:50:12;5.00;99.90
16283;DHT22;8249;48.708;9.030;2024-02-23T03:52:39;5.00;99.90
16283;DHT22;8249;48.708;9.030;2024-02-23T03:55:08;5.00;99.90
16283;DHT22;8249;48.708;9.030;2024-02-23T03:57:35;4.90;99.90
16283;DHT22;8249;48.708;9.030;2024-02-23T04:00:03;4.90;99.90
16283;DHT22;8249;48.708;9.030;2024-02-23T04:02:38;4.90;99.90
16283;DHT22;8249;48.708;9.030;2024-02-23T04:05:06;4.80;99.90
16283;DHT22;8249;48.708;9.030;2024-02-23T04:07:33;4.90;99.90
16283;DHT22;8249;48.708;9.030;2024-02-23T04:10:00;4.80;99.90
16283;DHT22;8249;48.708;9.030;2024-02-23T04:12:28;4.80;99.90
16283;DHT22;8249;48.708;9.030;2024-02-23T04:14:56;4.80;99.90
16283;DHT22;8249;48.708;9.030;2024-02-23T04:17:23;4.80;99.90
16283;DHT22;8249;48.708;9.030;2024-02-23T04:19:50;4.80;99.90
16283;DHT22;8249;48.708;9.030;2024-02-23T04:22:17;4.80;99.90
16283;DHT22;8249;48.708;9.030;2024-02-23T04:24:44;4.80;99.90
16283;DHT22;8249;48.708;9.030;2024-02-23T04:27:11;4.80;99.90
16283;DHT22;8249;48.708;9.030;2024-02-23T04:29:39;4.80;99.90
16283;DHT22;8249;48.708;9.030;2024-02-23T04:32:06;4.80;99.90
16283;DHT22;8249;48.708;9.030;2024-02-23T04:34:34;4.70;99.90
16283;DHT22;8249;48.708;9.030;2024-02-23T04:37:01;4.70;99.90
16283;DHT22;8249;48.708;9.030;2024-02-23T04:39:28;4.70;99.90
16283;DHT22;8249;48.708;9.030;2024-02-23T04:41:55;4.70;99.90
16283;DHT22;8249;48.708;9.030;2024-02-23T04:44:22;4.70;99.90
16283;DHT22;8249;48.708;9.030;2024-02-23T04:46:50;4.60;99.90
16283;DHT22;8249;48.708;9.030;2024-02-23T04:49:17;4.60;99.90
16283;DHT22;8249;48.708;9.030;2024-02-23T04:51:44;4.60;99.90
16283;DHT22;8249;48.708;9.030;2024-02-23T04:54:11;4.50;99.90
16283;DHT22;8249;48.708;9.030;2024-02-23T04:56:38;4.70;99.90
16283;DHT22;8249;48.708;9.030;2024-02-23T04:59:05;4.50;99.90
16283;DHT22;8249;48.708;9.030;2024-02-23T05:01:35;4.60;99.90
16283;DHT22;8249;48.708;9.030;2024-02-23T05:04:04;4.50;99.90
16283;DHT22;8249;48.708;9.030;2024-02-23T05:06:31;4.50;99.90
16283;DHT22;8249;48.708;9.030;2024-02-23T05:08:58;4.50;99.90
16283;DHT22;8249;48.708;9.030;2024-02-23T05:11:25;4.50;99.90
16283;DHT22;8249;48.708;9.030;2024-02-23T05:13:51;4.40;99.90
16283;DHT22;8249;48.708;9.030;2024-02-23T05:16:18;4.40;99.90
16283;DHT22;8249;48.708;9.030;2024-02-23T05:18:45;4.30;99.90
16283;DHT22;8249;48.708;9.030;2024-02-23T05:21:14;4.30;99.90
16283;DHT22;8249;48.708;9.030;2024-02-23T05:23:41;4.30;99.90
16283;DHT22;8249;48.708;9.030;2024-02-23T05:26:08;4.20;99.90
16283;DHT22;8249;48.708;9.030;2024-02-23T05:28:36;4.20;99.90
16283;DHT22;8249;48.708;9.030;2024-02-23T05:31:05;4.20;99.90
16283;DHT22;8249;48.708;9.030;2024-02-23T05:33:32;4.20;99.90
16283;DHT22;8249;48.708;9.030;2024-02-23T05:35:59;4.10;99.90
16283;DHT22;8249;48.708;9.030;2024-02-23T05:38:30;4.10;99.90
16283;DHT22;8249;48.708;9.030;2024-02-23T05:40:57;4.10;99.90
16283;DHT22;8249;48.708;9.030;2024-02-23T05:43:24;4.10;99.90
16283;DHT22;8249;48.708;9.030;2024-02-23T05:45:51;4.10;99.90
16283;DHT22;8249;48.708;9.030;2024-02-23T05:48:18;4.00;99.90
16283;DHT22;8249;48.708;9.030;2024-02-23T05:50:45;3.90;99.90
16283;DHT22;8249;48.708;9.030;2024-02-23T05:53:12;3.90;99.90
16283;DHT22;8249;48.708;9.030;2024-02-23T05:55:41;3.80;99.90
16283;DHT22;8249;48.708;9.030;2024-02-23T05:58:07;3.70;99.90
16283;DHT22;8249;48.708;9.030;2024-02-23T06:00:35;3.60;99.90
16283;DHT22;8249;48.708;9.030;2024-02-23T06:03:02;3.60;99.90
16283;DHT22;8249;48.708;9.030;2024-02-23T06:05:29;3.50;99.90
16283;DHT22;8249;48.708;9.030;2024-02-23T06:07:56;3.50;99.90
16283;DHT22;8249;48.708;9.030;2024-02-23T06:10:23;3.40;99.90
16283;DHT22;8249;48.708;9.030;2024-02-23T06:12:51;3.30;99.90
16283;DHT22;8249;48.708;9.030;2024-02-23T06:15:19;3.30;99.90
16283;DHT22;8249;48.708;9.030;2024-02-23T06:17:46;3.30;99.90
16283;DHT22;8249;48.708;9.030;2024-02-23T06:20:14;3.30;99.90
16283;DHT22;8249;48.708;9.030;2024-02-23T06:22:41;3.30;99.90
16283;DHT22;8249;48.708;9.030;2024-02-23T06:25:08;3.40;99.90
16283;DHT22;8249;48.708;9.030;2024-02-23T06:27:36;3.40;99.90
16283;DHT22;8249;48.708;9.030;2024-02-23T06:30:05;3.50;99.90
16283;DHT22;8249;48.708;9.030;2024-02-23T06:32:32;3.60;99.90
16283;DHT22;8249;48.708;9.030;2024-02-23T06:34:59;3.70;99.90
16283;DHT22;8249;48.708;9.030;2024-02-23T06:37:28;3.80;99.90
16283;DHT22;8249;48.708;9.030;2024-02-23T06:39:55;3.90;99.90
16283;DHT22;8249;48.708;9.030;2024-02-23T06:42:22;4.00;99.90
16283;DHT22;8249;48.708;9.030;2024-02-23T06:44:49;4.00;99.90
16283;DHT22;8249;48.708;9.030;2024-02-23T06:47:17;4.10;99.90
16283;DHT22;8249;48.708;9.030;2024-02-23T06:49:44;4.20;99.90
16283;DHT22;8249;48.708;9.030;2024-02-23T06:52:11;4.30;99.90
16283;DHT22;8249;48.708;9.030;2024-02-23T06:54:38;4.30;99.90
16283;DHT22;8249;48.708;9.030;2024-02-23T06:57:05;4.30;99.90
16283;DHT22;8249;48.708;9.030;2024-02-23T06:59:31;4.40;99.90
16283;DHT22;8249;48.708;9.030;2024-02-23T07:01:58;4.30;99.90
16283;DHT22;8249;48.708;9.030;2024-02-23T07:04:27;4.30;99.90
16283;DHT22;8249;48.708;9.030;2024-02-23T07:06:55;4.30;99.90
16283;DHT22;8249;48.708;9.030;2024-02-23T07:09:22;4.30;99.90
16283;DHT22;8249;48.708;9.030;2024-02-23T07:11:49;4.40;99.90
16283;DHT22;8249;48.708;9.030;2024-02-23T07:14:16;4.40;99.90
16283;DHT22;8249;48.708;9.030;2024-02-23T07:16:43;4.40;99.90
16283;DHT22;8249;48.708;9.030;2024-02-23T07:19:10;4.40;99.90
16283;DHT22;8249;48.708;9.030;2024-02-23T07:21:39;4.30;99.90
16283;DHT22;8249;48.708;9.030;2024-02-23T07:24:07;4.40;99.90
16283;DHT22;8249;48.708;9.030;2024-02-23T07:26:34;4.50;99.90
16283;DHT22;8249;48.708;9.030;2024-02-23T07:29:01;4.50;99.90
16283;DHT22;8249;48.708;9.030;2024-02-23T07:31:28;4.50;99.90
16283;DHT22;8249;48.708;9.030;2024-02-23T07:33:55;4.60;99.90
16283;DHT22;8249;48.708;9.030;2024-02-23T07:36:22;4.60;99.90
16283;DHT22;8249;48.708;9.030;2024-02-23T07:38:50;4.60;99.90
16283;DHT22;8249;48.708;9.030;2024-02-23T07:41:17;4.60;99.90
16283;DHT22;8249;48.708;9.030;2024-02-23T07:43:44;4.70;99.90
16283;DHT22;8249;48.708;9.030;2024-02-23T07:46:12;4.70;99.90
16283;DHT22;8249;48.708;9.030;2024-02-23T07:48:39;4.90;99.90
16283;DHT22;8249;48.708;9.030;2024-02-23T07:51:06;4.80;99.90
16283;DHT22;8249;48.708;9.030;2024-02-23T07:53:33;4.80;99.90
16283;DHT22;8249;48.708;9.030;2024-02-23T07:56:01;4.80;99.90
16283;DHT22;8249;48.708;9.030;2024-02-23T07:58:29;4.80;99.90
16283;DHT22;8249;48.708;9.030;2024-02-23T08:00:56;4.80;99.90
16283;DHT22;8249;48.708;9.030;2024-02-23T08:03:23;4.90;99.90
16283;DHT22;8249;48.708;9.030;2024-02-23T08:05:50;4.80;99.90
16283;DHT22;8249;48.708;9.030;2024-02-23T08:08:17;4.90;99.90
16283;DHT22;8249;48.708;9.030;2024-02-23T08:10:44;4.90;99.90
16283;DHT22;8249;48.708;9.030;2024-02-23T08:13:12;4.80;99.90
16283;DHT22;8249;48.708;9.030;2024-02-23T08:15:39;4.80;99.90
16283;DHT22;8249;48.708;9.030;2024-02-23T08:18:06;4.80;99.90
16283;DHT22;8249;48.708;9.030;2024-02-23T08:20:33;4.80;99.90
16283;DHT22;8249;48.708;9.030;2024-02-23T08:23:00;4.80;99.90
16283;DHT22;8249;48.708;9.030;2024-02-23T08:25:27;4.90;99.90
16283;DHT22;8249;48.708;9.030;2024-02-23T08:27:55;4.90;99.90
16283;DHT22;8249;48.708;9.030;2024-02-23T08:30:23;5.00;99.90
16283;DHT22;8249;48.708;9.030;2024-02-23T08:32:50;4.90;99.90
16283;DHT22;8249;48.708;9.030;2024-02-23T08:35:17;5.00;99.90
16283;DHT22;8249;48.708;9.030;2024-02-23T08:37:44;5.00;99.90
16283;DHT22;8249;48.708;9.030;2024-02-23T08:40:11;5.00;99.90
16283;DHT22;8249;48.708;9.030;2024-02-23T08:42:38;5.00;99.90
16283;DHT22;8249;48.708;9.030;2024-02-23T08:45:07;5.00;99.90
16283;DHT22;8249;48.708;9.030;2024-02-23T08:47:36;5.00;99.90
16283;DHT22;8249;48.708;9.030;2024-02-23T08:50:04;4.90;99.90
16283;DHT22;8249;48.708;9.030;2024-02-23T08:52:31;5.00;99.90
16283;DHT22;8249;48.708;9.030;2024-02-23T08:54:58;5.00;99.90
16283;DHT22;8249;48.708;9.030;2024-02-23T08:57:26;5.00;99.90
16283;DHT22;8249;48.708;9.030;2024-02-23T08:59:53;5.00;99.90
16283;DHT22;8249;48.708;9.030;2024-02-23T09:02:23;5.00;99.90
16283;DHT22;8249;48.708;9.030;2024-02-23T09:04:51;5.00;99.90
16283;DHT22;8249;48.708;9.030;2024-02-23T09:07:18;5.00;99.90
16283;DHT22;8249;48.708;9.030;2024-02-23T09:09:46;4.90;99.90
16283;DHT22;8249;48.708;9.030;2024-02-23T09:12:14;4.90;99.90
16283;DHT22;8249;48.708;9.030;2024-02-23T09:14:42;4.80;99.90
16283;DHT22;8249;48.708;9.030;2024-02-23T09:17:09;4.80;99.90
16283;DHT22;8249;48.708;9.030;2024-02-23T09:19:36;4.80;99.90
16283;DHT22;8249;48.708;9.030;2024-02-23T09:22:05;4.90;99.90
16283;DHT22;8249;48.708;9.030;2024-02-23T09:24:32;5.00;99.90
16283;DHT22;8249;48.708;9.030;2024-02-23T09:26:59;5.10;99.90
16283;DHT22;8249;48.708;9.030;2024-02-23T09:29:25;5.30;99.90
16283;DHT22;8249;48.708;9.030;2024-02-23T09:31:52;5.30;99.90
16283;DHT22;8249;48.708;9.030;2024-02-23T09:34:19;5.60;99.90
16283;DHT22;8249;48.708;9.030;2024-02-23T09:36:46;6.00;99.90
16283;DHT22;8249;48.708;9.030;2024-02-23T09:39:15;6.30;99.90
16283;DHT22;8249;48.708;9.030;2024-02-23T09:41:42;6.50;99.90
16283;DHT22;8249;48.708;9.030;2024-02-23T09:44:10;6.70;99.90
16283;DHT22;8249;48.708;9.030;2024-02-23T09:46:37;7.10;99.90
16283;DHT22;8249;48.708;9.030;2024-02-23T09:49:05;6.80;99.90
16283;DHT22;8249;48.708;9.030;2024-02-23T09:51:34;6.70;99.90
16283;DHT22;8249;48.708;9.030;2024-02-23T09:54:01;6.60;99.90
16283;DHT22;8249;48.708;9.030;2024-02-23T09:56:30;6.40;99.90
16283;DHT22;8249;48.708;9.030;2024-02-23T09:59:01;6.30;99.90
16283;DHT22;8249;48.708;9.030;2024-02-23T10:01:30;6.40;99.90
16283;DHT22;8249;48.708;9.030;2024-02-23T10:03:59;6.40;99.90
16283;DHT22;8249;48.708;9.030;2024-02-23T10:06:27;6.60;99.90
16283;DHT22;8249;48.708;9.030;2024-02-23T10:08:54;6.70;99.90
16283;DHT22;8249;48.708;9.030;2024-02-23T10:11:21;6.90;99.90
16283;DHT22;8249;48.708;9.030;2024-02-23T10:13:50;7.10;99.90
16283;DHT22;8249;48.708;9.030;2024-02-23T10:16:17;7.10;99.90
16283;DHT22;8249;48.708;9.030;2024-02-23T10:18:46;7.00;99.90
16283;DHT22;8249;48.708;9.030;2024-02-23T10:21:14;6.90;99.90
16283;DHT22;8249;48.708;9.030;2024-02-23T10:23:41;6.60;99.90
16283;DHT22;8249;48.708;9.030;2024-02-23T10:26:08;6.50;99.90
16283;DHT22;8249;48.708;9.030;2024-02-23T10:28:36;6.50;99.90
16283;DHT22;8249;48.708;9.030;2024-02-23T10:31:06;6.70;99.90
16283;DHT22;8249;48.708;9.030;2024-02-23T10:33:34;6.90;99.90
16283;DHT22;8249;48.708;9.030;2024-02-23T10:36:01;7.20;99.90
16283;DHT22;8249;48.708;9.030;2024-02-23T10:38:32;7.40;99.90
16283;DHT22;8249;48.708;9.030;2024-02-23T10:41:01;7.50;99.90
16283;DHT22;8249;48.708;9.030;2024-02-23T10:43:33;7.70;99.90
16283;DHT22;8249;48.708;9.030;2024-02-23T10:46:02;7.70;99.90
16283;DHT22;8249;48.708;9.030;2024-02-23T10:48:36;7.90;99.90
16283;DHT22;8249;48.708;9.030;2024-02-23T10:51:05;8.20;99.90
16283;DHT22;8249;48.708;9.030;2024-02-23T10:53:32;8.30;99.90
16283;DHT22;8249;48.708;9.030;2024-02-23T10:56:00;8.10;99.90
16283;DHT22;8249;48.708;9.030;2024-02-23T10:58:28;8.10;99.90
16283;DHT22;8249;48.708;9.030;2024-02-23T11:00:59;8.20;99.90
16283;DHT22;8249;48.708;9.030;2024-02-23T11:03:27;8.00;99.90
16283;DHT22;8249;48.708;9.030;2024-02-23T11:05:56;7.80;99.90
16283;DHT22;8249;48.708;9.030;2024-02-23T11:08:23;7.70;99.90
16283;DHT22;8249;48.708;9.030;2024-02-23T11:10:50;7.80;99.90
16283;DHT22;8249;48.708;9.030;2024-02-23T11:13:18;8.20;99.90
16283;DHT22;8249;48.708;9.030;2024-02-23T11:15:45;8.40;99.90
16283;DHT22;8249;48.708;9.030;2024-02-23T11:18:21;8.30;99.90
16283;DHT22;8249;48.708;9.030;2024-02-23T11:20:54;8.00;99.90
16283;DHT22;8249;48.708;9.030;2024-02-23T11:23:23;7.90;99.90
16283;DHT22;8249;48.708;9.030;2024-02-23T11:26:04;7.80;99.90
16283;DHT22;8249;48.708;9.030;2024-02-23T11:28:32;7.80;99.90
16283;DHT22;8249;48.708;9.030;2024-02-23T11:30:59;7.60;99.90
16283;DHT22;8249;48.708;9.030;2024-02-23T11:33:28;7.50;99.90
16283;DHT22;8249;48.708;9.030;2024-02-23T11:36:05;7.40;99.90
16283;DHT22;8249;48.708;9.030;2024-02-23T11:38:34;7.40;99.90
16283;DHT22;8249;48.708;9.030;2024-02-23T11:41:02;7.50;99.90
16283;DHT22;8249;48.708;9.030;2024-02-23T11:43:29;7.50;99.90
16283;DHT22;8249;48.708;9.030;2024-02-23T11:45:56;7.50;99.90
16283;DHT22;8249;48.708;9.030;2024-02-23T11:48:23;7.40;99.90
16283;DHT22;8249;48.708;9.030;2024-02-23T11:50:51;7.30;99.90
16283;DHT22;8249;48.708;9.030;2024-02-23T11:53:18;7.30;99.90
16283;DHT22;8249;48.708;9.030;2024-02-23T11:55:49;7.30;99.90
16283;DHT22;8249;48.708;9.030;2024-02-23T11:58:16;7.40;99.90
16283;DHT22;8249;48.708;9.030;2024-02-23T12:00:43;7.50;99.90
16283;DHT22;8249;48.708;9.030;2024-02-23T12:03:11;7.60;99.90
16283;DHT22;8249;48.708;9.030;2024-02-23T12:05:38;8.10;99.90
16283;DHT22;8249;48.708;9.030;2024-02-23T12:08:06;8.60;99.90
16283;DHT22;8249;48.708;9.030;2024-02-23T12:10:32;8.70;99.90
16283;DHT22;8249;48.708;9.030;2024-02-23T12:13:01;8.60;99.90
16283;DHT22;8249;48.708;9.030;2024-02-23T12:15:29;8.40;99.90
16283;DHT22;8249;48.708;9.030;2024-02-23T12:17:58;8.20;99.90
16283;DHT22;8249;48.708;9.030;2024-02-23T12:20:25;8.10;99.90
16283;DHT22;8249;48.708;9.030;2024-02-23T12:22:55;8.00;99.90
16283;DHT22;8249;48.708;9.030;2024-02-23T12:25:22;7.70;99.90
16283;DHT22;8249;48.708;9.030;2024-02-23T12:27:54;7.60;99.90
16283;DHT22;8249;48.708;9.030;2024-02-23T12:30:23;7.50;99.90
16283;DHT22;8249;48.708;9.030;2024-02-23T12:32:53;7.40;99.90
16283;DHT22;8249;48.708;9.030;2024-02-23T12:35:29;7.40;99.90
16283;DHT22;8249;48.708;9.030;2024-02-23T12:37:56;7.40;99.90
16283;DHT22;8249;48.708;9.030;2024-02-23T12:40:23;7.40;99.90
16283;DHT22;8249;48.708;9.030;2024-02-23T12:42:50;7.40;99.90
16283;DHT22;8249;48.708;9.030;2024-02-23T12:45:17;7.50;99.90
16283;DHT22;8249;48.708;9.030;2024-02-23T12:47:45;7.60;99.90
16283;DHT22;8249;48.708;9.030;2024-02-23T12:50:12;7.70;99.90
16283;DHT22;8249;48.708;9.030;2024-02-23T12:52:39;7.70;99.90
16283;DHT22;8249;48.708;9.030;2024-02-23T12:55:07;7.60;99.90
16283;DHT22;8249;48.708;9.030;2024-02-23T12:57:34;7.70;99.90
16283;DHT22;8249;48.708;9.030;2024-02-23T13:00:02;7.70;99.90
16283;DHT22;8249;48.708;9.030;2024-02-23T13:02:30;7.80;99.90
16283;DHT22;8249;48.708;9.030;2024-02-23T13:04:59;8.20;99.90
16283;DHT22;8249;48.708;9.030;2024-02-23T13:07:27;8.50;99.90
16283;DHT22;8249;48.708;9.030;2024-02-23T13:09:54;8.60;99.90
16283;DHT22;8249;48.708;9.030;2024-02-23T13:12:21;8.30;99.90
16283;DHT22;8249;48.708;9.030;2024-02-23T13:14:48;8.10;99.90
16283;DHT22;8249;48.708;9.030;2024-02-23T13:17:15;7.90;99.90
16283;DHT22;8249;48.708;9.030;2024-02-23T13:19:43;7.70;99.90
16283;DHT22;8249;48.708;9.030;2024-02-23T13:22:11;7.70;99.90
16283;DHT22;8249;48.708;9.030;2024-02-23T13:24:38;7.60;99.90
16283;DHT22;8249;48.708;9.030;2024-02-23T13:27:06;7.50;99.90
16283;DHT22;8249;48.708;9.030;2024-02-23T13:29:33;7.50;99.90
16283;DHT22;8249;48.708;9.030;2024-02-23T13:32:00;7.50;99.90
16283;DHT22;8249;48.708;9.030;2024-02-23T13:34:27;7.60;99.90
16283;DHT22;8249;48.708;9.030;2024-02-23T13:36:54;7.70;99.90
16283;DHT22;8249;48.708;9.030;2024-02-23T13:39:22;7.70;99.90
16283;DHT22;8249;48.708;9.030;2024-02-23T13:41:49;7.60;99.90
16283;DHT22;8249;48.708;9.030;2024-02-23T13:44:16;7.50;99.90
16283;DHT22;8249;48.708;9.030;2024-02-23T13:46:43;7.50;99.90
16283;DHT22;8249;48.708;9.030;2024-02-23T13:49:10;7.50;99.90
16283;DHT22;8249;48.708;9.030;2024-02-23T13:51:38;7.60;99.90
16283;DHT22;8249;48.708;9.030;2024-02-23T13:54:05;7.70;99.90
16283;DHT22;8249;48.708;9.030;2024-02-23T13:56:33;7.80;99.90
16283;DHT22;8249;48.708;9.030;2024-02-23T13:59:00;7.90;99.90
16283;DHT22;8249;48.708;9.030;2024-02-23T14:01:27;8.00;99.90
16283;DHT22;8249;48.708;9.030;2024-02-23T14:03:54;8.00;99.90
16283;DHT22;8249;48.708;9.030;2024-02-23T14:06:21;8.00;99.90
16283;DHT22;8249;48.708;9.030;2024-02-23T14:08:49;8.20;99.90
16283;DHT22;8249;48.708;9.030;2024-02-23T14:11:16;8.20;99.90
16283;DHT22;8249;48.708;9.030;2024-02-23T14:13:45;8.60;99.90
16283;DHT22;8249;48.708;9.030;2024-02-23T14:16:12;9.50;99.90
16283;DHT22;8249;48.708;9.030;2024-02-23T14:18:39;10.60;99.90
16283;DHT22;8249;48.708;9.030;2024-02-23T14:21:08;10.90;99.90
16283;DHT22;8249;48.708;9.030;2024-02-23T14:23:36;11.60;99.90
16283;DHT22;8249;48.708;9.030;2024-02-23T14:26:03;12.40;99.90
16283;DHT22;8249;48.708;9.030;2024-02-23T14:28:30;13.10;99.90
16283;DHT22;8249;48.708;9.030;2024-02-23T14:30:59;13.70;99.90
16283;DHT22;8249;48.708;9.030;2024-02-23T14:33:26;12.80;99.90
16283;DHT22;8249;48.708;9.030;2024-02-23T14:35:52;11.70;99.90
16283;DHT22;8249;48.708;9.030;2024-02-23T14:38:21;11.00;99.90
16283;DHT22;8249;48.708;9.030;2024-02-23T14:40:48;10.20;99.90
16283;DHT22;8249;48.708;9.030;2024-02-23T14:43:15;9.70;99.90
16283;DHT22;8249;48.708;9.030;2024-02-23T14:45:42;9.40;99.90
16283;DHT22;8249;48.708;9.030;2024-02-23T14:48:11;9.00;99.90
16283;DHT22;8249;48.708;9.030;2024-02-23T14:50:38;8.60;99.90
16283;DHT22;8249;48.708;9.030;2024-02-23T14:53:05;8.20;99.90
16283;DHT22;8249;48.708;9.030;2024-02-23T14:55:32;8.10;99.90
16283;DHT22;8249;48.708;9.030;2024-02-23T14:57:59;8.00;99.90
16283;DHT22;8249;48.708;9.030;2024-02-23T15:00:26;8.00;99.90
16283;DHT22;8249;48.708;9.030;2024-02-23T15:02:55;8.00;99.90
16283;DHT22;8249;48.708;9.030;2024-02-23T15:05:24;7.90;99.90
16283;DHT22;8249;48.708;9.030;2024-02-23T15:07:51;7.90;99.90
16283;DHT22;8249;48.708;9.030;2024-02-23T15:10:17;7.80;99.90
16283;DHT22;8249;48.708;9.030;2024-02-23T15:12:44;7.80;99.90
16283;DHT22;8249;48.708;9.030;2024-02-23T15:15:11;7.80;99.90
16283;DHT22;8249;48.708;9.030;2024-02-23T15:17:39;7.80;99.90
16283;DHT22;8249;48.708;9.030;2024-02-23T15:20:08;7.70;99.90
16283;DHT22;8249;48.708;9.030;2024-02-23T15:22:37;7.70;99.90
16283;DHT22;8249;48.708;9.030;2024-02-23T15:25:08;7.70;99.90
16283;DHT22;8249;48.708;9.030;2024-02-23T15:27:35;7.80;99.90
16283;DHT22;8249;48.708;9.030;2024-02-23T15:30:03;7.60;99.90
16283;DHT22;8249;48.708;9.030;2024-02-23T15:32:33;7.60;99.90
16283;DHT22;8249;48.708;9.030;2024-02-23T15:35:00;7.60;99.90
16283;DHT22;8249;48.708;9.030;2024-02-23T15:37:28;7.70;99.90
16283;DHT22;8249;48.708;9.030;2024-02-23T15:39:58;7.70;99.90
16283;DHT22;8249;48.708;9.030;2024-02-23T15:42:25;7.80;99.90
16283;DHT22;8249;48.708;9.030;2024-02-23T15:44:52;8.80;99.90
16283;DHT22;8249;48.708;9.030;2024-02-23T15:47:19;9.80;99.90
16283;DHT22;8249;48.708;9.030;2024-02-23T15:49:47;10.00;99.90
16283;DHT22;8249;48.708;9.030;2024-02-23T15:52:14;9.80;99.90
16283;DHT22;8249;48.708;9.030;2024-02-23T15:54:41;9.40;99.90
16283;DHT22;8249;48.708;9.030;2024-02-23T15:57:09;9.00;99.90
16283;DHT22;8249;48.708;9.030;2024-02-23T15:59:36;8.70;99.90
16283;DHT22;8249;48.708;9.030;2024-02-23T16:02:03;8.40;99.90
16283;DHT22;8249;48.708;9.030;2024-02-23T16:04:31;8.20;99.90